New Centerville, Idaho
Current Conditions -  °F | °C
As of 5:53 AM on Friday 24 Oct 2014 (Local Time) from KBOI Reporting Station
Light Rain Light Rain  
Wind Chill: 11°   Ceiling: 9000
Heat Index: 11°   Visibility: 10mi
Dew Point:   Wind: 6mph
Humidity: 92%   Direction: 190°S
Pressure: 30.08"   Gusts: NA
Location:  43.8008°N, 115.834°W
Report Text: KBOI 241153Z 19005KT 10SM -RA SCT080 OVC090 11/09 A3008 RMK AO2 SLP178 P0001 60003 70008 T01060094 10117 20106 55003
Loading
Personal Weather Stations






























Interactive Weather Map
Tropical Storm Tracking
New forecast layout! Learn more

10-Day Weather Forecast

Advertisements
Track Severe Weather on mobile